Time,TemperatureF,DewpointF,PressureIn,WindDirection,WindDirectionDegrees,WindSpeedMPH,WindSpeedGustMPH,Humidity,HourlyPrecipIn,Conditions,Clouds,dailyrainin,SoftwareType,DateUTC
2013-03-24 00:00:00,26.0,21.0,29.95,WNW,284,2.0,2.0,81,0.00,,,0.01,Wunderground v.1.15,2013-03-24 04:00:00,
2013-03-24 00:01:00,26.0,21.0,29.95,SSW,200,2.0,4.0,81,0.00,,,0.01,Wunderground v.1.15,2013-03-24 04:01:00,
2013-03-24 00:02:00,26.0,21.0,29.95,WNW,284,2.0,18.0,81,0.00,,,0.00,Wunderground v.1.15,2013-03-24 04:02:00,
2013-03-24 00:03:00,26.0,21.0,29.95,West,262,2.0,18.0,81,0.00,,,0.00,Wunderground v.1.15,2013-03-24 04:03:00,
2013-03-24 00:08:00,26.1,21.1,29.95,West,269,2.0,18.0,81,0.00,,,0.00,Wunderground v.1.15,2013-03-24 04:08:00,
2013-03-24 00:14:00,26.1,21.1,29.95,West,281,2.0,18.0,81,0.00,,,0.00,Wunderground v.1.15,2013-03-24 04:14:00,
2013-03-24 00:19:00,26.1,21.1,29.95,West,271,2.0,18.0,81,0.00,,,0.00,Wunderground v.1.15,2013-03-24 04:19:00,
2013-03-24 00:24:00,26.0,21.0,29.95,NW,314,2.0,18.0,81,0.00,,,0.00,Wunderground v.1.15,2013-03-24 04:24:00,
2013-03-24 00:29:00,26.0,21.0,29.95,WNW,293,2.0,18.0,81,0.00,,,0.00,Wunderground v.1.15,2013-03-24 04:29:00,
2013-03-24 00:34:00,25.9,21.2,29.95,West,276,2.0,18.0,82,0.00,,,0.00,Wunderground v.1.15,2013-03-24 04:34:00,
2013-03-24 00:39:00,26.0,21.3,29.95,NW,310,2.0,18.0,82,0.00,,,0.00,Wunderground v.1.15,2013-03-24 04:39:00,
2013-03-24 00:45:00,25.9,21.2,29.95,WNW,297,3.0,18.0,82,0.00,,,0.00,Wunderground v.1.15,2013-03-24 04:45:00,
2013-03-24 00:50:00,25.9,21.2,29.95,West,268,2.0,18.0,82,0.00,,,0.00,Wunderground v.1.15,2013-03-24 04:50:00,
2013-03-24 00:55:00,26.0,21.0,29.95,West,280,3.0,18.0,81,0.00,,,0.00,Wunderground v.1.15,2013-03-24 04:55:00,
2013-03-24 01:01:00,26.0,21.0,29.95,WSW,240,3.0,18.0,81,0.00,,,0.00,Wunderground v.1.15,2013-03-24 05:01:00,
2013-03-24 01:06:00,26.1,21.1,29.95,WNW,282,2.0,18.0,81,0.00,,,0.00,Wunderground v.1.15,2013-03-24 05:06:00,
2013-03-24 01:11:00,26.1,21.1,29.95,West,280,2.0,18.0,81,0.00,,,0.00,Wunderground v.1.15,2013-03-24 05:11:00,
2013-03-24 01:16:00,26.0,21.0,29.95,WSW,257,2.0,18.0,81,0.00,,,0.00,Wunderground v.1.15,2013-03-24 05:16:00,
2013-03-24 01:21:00,26.1,21.1,29.95,West,273,2.0,18.0,81,0.00,,,0.00,Wunderground v.1.15,2013-03-24 05:21:00,
2013-03-24 01:27:00,26.1,20.8,29.95,SSW,210,2.0,18.0,80,0.00,,,0.00,Wunderground v.1.15,2013-03-24 05:27:00,
2013-03-24 01:32:00,26.1,20.8,29.95,West,281,2.0,18.0,80,0.00,,,0.00,Wunderground v.1.15,2013-03-24 05:32:00,
2013-03-24 01:37:00,26.1,20.8,29.95,WSW,255,2.0,18.0,80,0.00,,,0.00,Wunderground v.1.15,2013-03-24 05:37:00,
2013-03-24 01:42:00,26.1,20.8,29.95,WNW,283,2.0,18.0,80,0.00,,,0.00,Wunderground v.1.15,2013-03-24 05:42:00,
2013-03-24 01:48:00,26.1,20.8,29.95,NW,314,2.0,18.0,80,0.00,,,0.00,Wunderground v.1.15,2013-03-24 05:48:00,
2013-03-24 01:53:00,26.1,20.8,29.95,WNW,286,3.0,18.0,80,0.00,,,0.00,Wunderground v.1.15,2013-03-24 05:53:00,
2013-03-24 01:58:00,26.1,20.8,29.94,WNW,282,2.0,18.0,80,0.00,,,0.00,Wunderground v.1.15,2013-03-24 05:58:00,
2013-03-24 02:03:00,26.1,20.8,29.94,West,274,3.0,18.0,80,0.00,,,0.00,Wunderground v.1.15,2013-03-24 06:03:00,
2013-03-24 02:08:00,26.0,20.7,29.94,WNW,285,3.0,18.0,80,0.00,,,0.00,Wunderground v.1.15,2013-03-24 06:08:00,
2013-03-24 02:14:00,26.0,20.7,29.95,WSW,238,3.0,18.0,80,0.00,,,0.00,Wunderground v.1.15,2013-03-24 06:14:00,
2013-03-24 02:19:00,26.0,20.7,29.95,WNW,298,3.0,18.0,80,0.00,,,0.00,Wunderground v.1.15,2013-03-24 06:19:00,
2013-03-24 02:25:00,26.0,20.7,29.94,NW,305,3.0,18.0,80,0.00,,,0.00,Wunderground v.1.15,2013-03-24 06:25:00,
2013-03-24 02:30:00,25.9,20.6,29.94,West,281,3.0,3.0,80,0.00,,,0.00,Wunderground v.1.15,2013-03-24 06:30:00,
2013-03-24 02:35:00,25.8,20.5,29.94,West,280,3.0,18.0,80,0.00,,,0.00,Wunderground v.1.15,2013-03-24 06:35:00,
2013-03-24 02:40:00,25.6,20.3,29.93,WNW,302,2.0,2.0,80,0.00,,,0.00,Wunderground v.1.15,2013-03-24 06:40:00,
2013-03-24 02:46:00,25.5,20.2,29.93,West,269,2.0,18.0,80,0.00,,,0.00,Wunderground v.1.15,2013-03-24 06:46:00,
2013-03-24 02:52:00,25.4,20.4,29.92,WSW,255,2.0,18.0,81,0.00,,,0.00,Wunderground v.1.15,2013-03-24 06:52:00,
2013-03-24 02:58:00,25.3,20.3,29.92,West,278,2.0,18.0,81,0.00,,,0.00,Wunderground v.1.15,2013-03-24 06:58:00,
2013-03-24 03:03:00,25.1,20.1,29.92,NNW,333,2.0,18.0,81,0.00,,,0.00,Wunderground v.1.15,2013-03-24 07:03:00,
2013-03-24 03:08:00,25.0,20.0,29.92,WNW,295,1.0,18.0,81,0.00,,,0.00,Wunderground v.1.15,2013-03-24 07:08:00,
2013-03-24 03:13:00,24.8,19.8,29.92,WSW,243,1.0,9.0,81,0.00,,,0.00,Wunderground v.1.15,2013-03-24 07:13:00,
2013-03-24 03:18:00,24.6,19.9,29.92,SW,236,1.0,9.0,82,0.00,,,0.00,Wunderground v.1.15,2013-03-24 07:18:00,
2013-03-24 03:23:00,24.7,20.0,29.91,East,84,1.0,9.0,82,0.00,,,0.00,Wunderground v.1.15,2013-03-24 07:23:00,
2013-03-24 03:29:00,24.4,19.7,29.91,South,176,1.0,9.0,82,0.00,,,0.00,Wunderground v.1.15,2013-03-24 07:29:00,
2013-03-24 03:34:00,24.2,19.5,29.91,ENE,72,1.0,9.0,82,0.00,,,0.00,Wunderground v.1.15,2013-03-24 07:34:00,
2013-03-24 03:39:00,24.2,19.5,29.91,South,186,1.0,9.0,82,0.00,,,0.00,Wunderground v.1.15,2013-03-24 07:39:00,
2013-03-24 03:44:00,23.9,19.5,29.91,SSW,204,1.0,9.0,83,0.00,,,0.00,Wunderground v.1.15,2013-03-24 07:44:00,
2013-03-24 03:49:00,23.7,19.3,29.91,SSE,165,1.0,9.0,83,0.00,,,0.00,Wunderground v.1.15,2013-03-24 07:49:00,
2013-03-24 03:55:00,23.4,19.3,29.91,SSE,162,1.0,9.0,84,0.00,,,0.00,Wunderground v.1.15,2013-03-24 07:55:00,
2013-03-24 04:00:00,23.3,19.2,29.91,SSE,150,1.0,1.0,84,0.00,,,0.00,Wunderground v.1.15,2013-03-24 08:00:00,
2013-03-24 04:05:00,23.3,19.5,29.90,SE,139,1.0,9.0,85,0.00,,,0.00,Wunderground v.1.15,2013-03-24 08:05:00,
2013-03-24 04:11:00,23.1,19.3,29.89,SE,139,1.0,9.0,85,0.00,,,0.00,Wunderground v.1.15,2013-03-24 08:11:00,
2013-03-24 04:16:00,23.0,19.4,29.89,ENE,72,0.0,9.0,86,0.00,,,0.00,Wunderground v.1.15,2013-03-24 08:16:00,
2013-03-24 04:22:00,22.9,19.3,29.89,ENE,73,1.0,9.0,86,0.00,,,0.00,Wunderground v.1.15,2013-03-24 08:22:00,
2013-03-24 04:27:00,23.2,19.4,29.89,NW,307,1.0,9.0,85,0.00,,,0.00,Wunderground v.1.15,2013-03-24 08:27:00,
2013-03-24 04:32:00,22.9,19.1,29.89,SSE,162,1.0,9.0,85,0.00,,,0.00,Wunderground v.1.15,2013-03-24 08:32:00,
2013-03-24 04:37:00,22.7,19.1,29.90,SSE,153,1.0,9.0,86,0.00,,,0.00,Wunderground v.1.15,2013-03-24 08:37:00,
2013-03-24 04:43:00,22.3,18.5,29.91,SSE,166,1.0,9.0,85,0.00,,,0.00,Wunderground v.1.15,2013-03-24 08:43:00,
2013-03-24 04:48:00,22.0,18.5,29.91,South,190,1.0,9.0,86,0.00,,,0.00,Wunderground v.1.15,2013-03-24 08:48:00,
2013-03-24 04:53:00,21.7,18.4,29.92,WSW,249,1.0,9.0,87,0.00,,,0.00,Wunderground v.1.15,2013-03-24 08:53:00,
2013-03-24 04:58:00,21.5,18.2,29.93,WSW,252,1.0,9.0,87,0.00,,,0.00,Wunderground v.1.15,2013-03-24 08:58:00,
2013-03-24 05:03:00,21.7,18.7,29.91,WSW,252,0.0,9.0,88,0.00,,,0.00,Wunderground v.1.15,2013-03-24 09:03:00,
2013-03-24 05:08:00,22.0,19.0,29.92,SSW,205,0.0,9.0,88,0.00,,,0.00,Wunderground v.1.15,2013-03-24 09:08:00,
2013-03-24 05:14:00,22.1,19.1,29.93,SW,217,1.0,9.0,88,0.00,,,0.00,Wunderground v.1.15,2013-03-24 09:14:00,
2013-03-24 05:19:00,22.3,19.3,29.93,South,184,1.0,9.0,88,0.00,,,0.00,Wunderground v.1.15,2013-03-24 09:19:00,
2013-03-24 05:24:00,22.5,19.5,29.92,WSW,247,0.0,9.0,88,0.00,,,0.00,Wunderground v.1.15,2013-03-24 09:24:00,
2013-03-24 05:29:00,22.8,19.5,29.93,South,184,0.0,9.0,87,0.00,,,0.00,Wunderground v.1.15,2013-03-24 09:29:00,
2013-03-24 05:34:00,22.9,19.6,29.93,South,182,0.0,9.0,87,0.00,,,0.00,Wunderground v.1.15,2013-03-24 09:34:00,
2013-03-24 05:40:00,23.1,19.8,29.93,South,190,1.0,9.0,87,0.00,,,0.00,Wunderground v.1.15,2013-03-24 09:40:00,
2013-03-24 05:46:00,23.2,19.9,29.93,West,278,1.0,9.0,87,0.00,,,0.00,Wunderground v.1.15,2013-03-24 09:46:00,
2013-03-24 05:51:00,23.5,19.9,29.93,SSE,159,1.0,9.0,86,0.00,,,0.00,Wunderground v.1.15,2013-03-24 09:51:00,
2013-03-24 05:57:00,23.6,20.0,29.93,WSW,252,1.0,9.0,86,0.00,,,0.00,Wunderground v.1.15,2013-03-24 09:57:00,
2013-03-24 06:02:00,23.8,20.2,29.94,South,187,1.0,9.0,86,0.00,,,0.00,Wunderground v.1.15,2013-03-24 10:02:00,
2013-03-24 06:08:00,23.9,20.3,29.93,SSW,204,1.0,9.0,86,0.00,,,0.00,Wunderground v.1.15,2013-03-24 10:08:00,
2013-03-24 06:13:00,23.9,20.0,29.93,West,274,0.0,9.0,85,0.00,,,0.00,Wunderground v.1.15,2013-03-24 10:13:00,
2013-03-24 06:18:00,23.9,20.0,29.93,NE,53,0.0,9.0,85,0.00,,,0.00,Wunderground v.1.15,2013-03-24 10:18:00,
2013-03-24 06:23:00,24.0,20.1,29.93,SW,215,1.0,9.0,85,0.00,,,0.00,Wunderground v.1.15,2013-03-24 10:23:00,
2013-03-24 06:28:00,23.9,20.0,29.93,WSW,245,1.0,9.0,85,0.00,,,0.00,Wunderground v.1.15,2013-03-24 10:28:00,
2013-03-24 06:34:00,24.0,20.1,29.93,SSW,203,0.0,9.0,85,0.00,,,0.00,Wunderground v.1.15,2013-03-24 10:34:00,
2013-03-24 06:39:00,24.0,20.1,29.94,West,273,1.0,9.0,85,0.00,,,0.00,Wunderground v.1.15,2013-03-24 10:39:00,
2013-03-24 06:45:00,23.9,20.0,29.94,WSW,256,1.0,9.0,85,0.00,,,0.00,Wunderground v.1.15,2013-03-24 10:45:00,
2013-03-24 06:50:00,24.1,20.2,29.94,NW,304,1.0,9.0,85,0.00,,,0.00,Wunderground v.1.15,2013-03-24 10:50:00,
2013-03-24 06:55:00,24.1,20.2,29.93,West,278,1.0,9.0,85,0.00,,,0.00,Wunderground v.1.15,2013-03-24 10:55:00,
2013-03-24 07:00:00,23.9,20.0,29.93,WNW,284,1.0,9.0,85,0.00,,,0.00,Wunderground v.1.15,2013-03-24 11:00:00,
2013-03-24 07:05:00,23.9,20.0,29.94,WNW,291,1.0,9.0,85,0.00,,,0.00,Wunderground v.1.15,2013-03-24 11:05:00,
2013-03-24 07:12:00,23.9,20.0,29.93,WNW,284,1.0,9.0,85,0.00,,,0.00,Wunderground v.1.15,2013-03-24 11:12:00,
2013-03-24 07:17:00,24.0,20.1,29.93,WNW,288,1.0,9.0,85,0.00,,,0.00,Wunderground v.1.15,2013-03-24 11:17:00,
2013-03-24 07:22:00,24.1,20.2,29.93,West,277,1.0,9.0,85,0.00,,,0.00,Wunderground v.1.15,2013-03-24 11:22:00,
2013-03-24 07:27:00,24.2,20.1,29.93,WNW,284,1.0,9.0,84,0.00,,,0.00,Wunderground v.1.15,2013-03-24 11:27:00,
2013-03-24 07:32:00,24.3,20.2,29.93,WNW,285,1.0,9.0,84,0.00,,,0.00,Wunderground v.1.15,2013-03-24 11:32:00,
2013-03-24 07:38:00,24.4,20.3,29.93,NW,305,1.0,9.0,84,0.00,,,0.00,Wunderground v.1.15,2013-03-24 11:38:00,
2013-03-24 07:43:00,24.4,20.3,29.93,West,281,1.0,9.0,84,0.00,,,0.00,Wunderground v.1.15,2013-03-24 11:43:00,
2013-03-24 07:49:00,24.6,20.5,29.93,NW,319,1.0,9.0,84,0.00,,,0.00,Wunderground v.1.15,2013-03-24 11:49:00,
2013-03-24 07:54:00,24.8,20.7,29.93,NW,314,2.0,9.0,84,0.00,,,0.00,Wunderground v.1.15,2013-03-24 11:54:00,
2013-03-24 07:59:00,25.1,20.7,29.93,WNW,293,2.0,9.0,83,0.00,,,0.00,Wunderground v.1.15,2013-03-24 11:59:00,
2013-03-24 08:04:00,25.3,20.9,29.94,WNW,298,2.0,9.0,83,0.00,,,0.00,Wunderground v.1.15,2013-03-24 12:04:00,
2013-03-24 08:10:00,25.6,20.9,29.94,West,277,2.0,9.0,82,0.00,,,0.00,Wunderground v.1.15,2013-03-24 12:10:00,
2013-03-24 08:15:00,25.9,21.2,29.94,NW,314,2.0,9.0,82,0.00,,,0.00,Wunderground v.1.15,2013-03-24 12:15:00,
2013-03-24 08:20:00,26.1,21.1,29.94,North,349,2.0,9.0,81,0.00,,,0.00,Wunderground v.1.15,2013-03-24 12:20:00,
2013-03-24 08:25:00,26.3,21.0,29.94,North,360,2.0,9.0,80,0.00,,,0.00,Wunderground v.1.15,2013-03-24 12:25:00,
2013-03-24 08:30:00,26.4,20.8,29.95,NNW,334,2.0,9.0,79,0.00,,,0.00,Wunderground v.1.15,2013-03-24 12:30:00,
2013-03-24 08:35:00,26.6,20.7,29.95,West,281,3.0,9.0,78,0.00,,,0.00,Wunderground v.1.15,2013-03-24 12:35:00,
2013-03-24 08:41:00,26.7,20.8,29.95,WNW,286,3.0,9.0,78,0.00,,,0.00,Wunderground v.1.15,2013-03-24 12:41:00,
2013-03-24 08:46:00,26.7,20.5,29.96,WNW,295,3.0,9.0,77,0.00,,,0.00,Wunderground v.1.15,2013-03-24 12:46:00,
2013-03-24 08:51:00,26.7,20.1,29.95,North,7,4.0,9.0,76,0.00,,,0.00,Wunderground v.1.15,2013-03-24 12:51:00,
2013-03-24 08:57:00,26.7,20.1,29.96,NW,305,4.0,9.0,76,0.00,,,0.00,Wunderground v.1.15,2013-03-24 12:57:00,
2013-03-24 09:03:00,26.8,19.9,29.95,NW,312,4.0,9.0,75,0.00,,,0.00,Wunderground v.1.15,2013-03-24 13:03:00,
2013-03-24 09:08:00,26.9,20.0,29.96,WNW,301,4.0,9.0,75,0.00,,,0.00,Wunderground v.1.15,2013-03-24 13:08:00,
2013-03-24 09:14:00,27.0,20.1,29.95,WNW,299,4.0,9.0,75,0.00,,,0.00,Wunderground v.1.15,2013-03-24 13:14:00,
2013-03-24 09:19:00,27.0,20.1,29.95,North,356,5.0,9.0,75,0.00,,,0.00,Wunderground v.1.15,2013-03-24 13:19:00,
2013-03-24 09:24:00,27.1,19.9,29.95,WNW,283,4.0,9.0,74,0.00,,,0.00,Wunderground v.1.15,2013-03-24 13:24:00,
2013-03-24 09:29:00,27.1,19.9,29.94,North,6,4.0,10.0,74,0.00,,,0.00,Wunderground v.1.15,2013-03-24 13:29:00,
2013-03-24 09:35:00,27.2,20.0,29.94,NNW,329,4.0,9.0,74,0.00,,,0.00,Wunderground v.1.15,2013-03-24 13:35:00,
2013-03-24 09:40:00,27.4,20.2,29.94,WNW,288,3.0,3.0,74,0.00,,,0.00,Wunderground v.1.15,2013-03-24 13:40:00,
2013-03-24 09:45:00,27.6,20.4,29.94,NW,312,2.0,9.0,74,0.00,,,0.00,Wunderground v.1.15,2013-03-24 13:45:00,
2013-03-24 09:50:00,27.7,20.2,29.94,NE,36,2.0,2.0,73,0.00,,,0.00,Wunderground v.1.15,2013-03-24 13:50:00,
2013-03-24 09:55:00,28.0,20.1,29.94,NNW,338,2.0,9.0,72,0.00,,,0.00,Wunderground v.1.15,2013-03-24 13:55:00,
2013-03-24 10:01:00,28.0,19.8,29.94,NNE,12,3.0,9.0,71,0.00,,,0.00,Wunderground v.1.15,2013-03-24 14:01:00,
2013-03-24 10:06:00,28.0,19.8,29.95,NW,308,4.0,9.0,71,0.00,,,0.00,Wunderground v.1.15,2013-03-24 14:06:00,
2013-03-24 10:12:00,28.0,20.1,29.94,NW,322,4.0,9.0,72,0.00,,,0.00,Wunderground v.1.15,2013-03-24 14:12:00,
2013-03-24 10:17:00,28.3,20.1,29.94,West,259,3.0,9.0,71,0.00,,,0.00,Wunderground v.1.15,2013-03-24 14:17:00,
2013-03-24 10:23:00,28.2,20.0,29.94,NNW,344,4.0,9.0,71,0.00,,,0.00,Wunderground v.1.15,2013-03-24 14:23:00,
2013-03-24 10:28:00,28.3,20.1,29.94,NNW,338,5.0,9.0,71,0.00,,,0.00,Wunderground v.1.15,2013-03-24 14:28:00,
2013-03-24 10:33:00,28.6,20.4,29.94,WNW,301,4.0,9.0,71,0.00,,,0.00,Wunderground v.1.15,2013-03-24 14:33:00,
2013-03-24 10:38:00,29.0,20.4,29.94,NNW,330,4.0,9.0,70,0.00,,,0.00,Wunderground v.1.15,2013-03-24 14:38:00,
2013-03-24 10:43:00,29.4,20.5,29.94,NNW,345,5.0,9.0,69,0.00,,,0.00,Wunderground v.1.15,2013-03-24 14:43:00,
2013-03-24 10:48:00,29.3,20.7,29.94,NNW,334,4.0,9.0,70,0.00,,,0.00,Wunderground v.1.15,2013-03-24 14:48:00,
2013-03-24 10:53:00,29.3,20.7,29.94,North,5,3.0,9.0,70,0.00,,,0.00,Wunderground v.1.15,2013-03-24 14:53:00,
2013-03-24 10:58:00,29.6,20.7,29.95,NW,319,3.0,9.0,69,0.00,,,0.00,Wunderground v.1.15,2013-03-24 14:58:00,
2013-03-24 11:04:00,29.3,20.7,29.95,NW,316,3.0,9.0,70,0.00,,,0.00,Wunderground v.1.15,2013-03-24 15:04:00,
2013-03-24 11:09:00,29.3,20.4,29.95,NNW,328,3.0,9.0,69,0.00,,,0.00,Wunderground v.1.15,2013-03-24 15:09:00,
2013-03-24 11:15:00,29.4,20.5,29.95,NW,312,3.0,9.0,69,0.00,,,0.00,Wunderground v.1.15,2013-03-24 15:15:00,
2013-03-24 11:20:00,29.6,20.7,29.95,WNW,285,3.0,9.0,69,0.00,,,0.00,Wunderground v.1.15,2013-03-24 15:20:00,
2013-03-24 11:25:00,29.8,20.9,29.95,WNW,294,3.0,9.0,69,0.00,,,0.00,Wunderground v.1.15,2013-03-24 15:25:00,
2013-03-24 11:30:00,30.0,20.7,29.94,WNW,294,3.0,9.0,68,0.00,,,0.00,Wunderground v.1.15,2013-03-24 15:30:00,
2013-03-24 11:36:00,30.2,20.6,29.95,NW,308,3.0,9.0,67,0.00,,,0.00,Wunderground v.1.15,2013-03-24 15:36:00,
2013-03-24 11:41:00,30.6,20.9,29.94,WNW,302,4.0,9.0,67,0.00,,,0.00,Wunderground v.1.15,2013-03-24 15:41:00,
2013-03-24 11:46:00,30.7,21.0,29.94,SW,235,4.0,9.0,67,0.00,,,0.00,Wunderground v.1.15,2013-03-24 15:46:00,
2013-03-24 11:51:00,30.4,20.7,29.94,WNW,287,4.0,9.0,67,0.00,,,0.00,Wunderground v.1.15,2013-03-24 15:51:00,
2013-03-24 11:56:00,30.8,20.8,29.94,NNE,19,4.0,9.0,66,0.00,,,0.00,Wunderground v.1.15,2013-03-24 15:56:00,
2013-03-24 12:02:00,31.0,21.0,29.94,NW,322,3.0,9.0,66,0.00,,,0.00,Wunderground v.1.15,2013-03-24 16:02:00,
2013-03-24 12:08:00,31.5,21.4,29.93,West,278,4.0,9.0,66,0.00,,,0.00,Wunderground v.1.15,2013-03-24 16:08:00,
2013-03-24 12:13:00,32.3,21.8,29.92,WNW,302,3.0,9.0,65,0.00,,,0.00,Wunderground v.1.15,2013-03-24 16:13:00,
2013-03-24 12:19:00,32.8,22.0,29.92,North,360,2.0,9.0,64,0.00,,,0.00,Wunderground v.1.15,2013-03-24 16:19:00,
2013-03-24 12:24:00,33.1,21.1,29.91,WNW,300,3.0,9.0,61,0.00,,,0.00,Wunderground v.1.15,2013-03-24 16:24:00,
2013-03-24 12:30:00,33.7,22.1,29.91,NNW,340,3.0,9.0,62,0.00,,,0.01,Wunderground v.1.15,2013-03-24 16:30:00,
2013-03-24 12:35:00,33.7,21.7,29.91,NW,316,3.0,9.0,61,0.00,,,0.01,Wunderground v.1.15,2013-03-24 16:35:00,
2013-03-24 12:40:00,33.5,21.5,29.91,NNW,337,3.0,9.0,61,0.00,,,0.01,Wunderground v.1.15,2013-03-24 16:40:00,
2013-03-24 12:45:00,32.9,20.9,29.91,NNW,341,4.0,9.0,61,0.00,,,0.01,Wunderground v.1.15,2013-03-24 16:45:00,
2013-03-24 12:51:00,33.6,21.2,29.91,WNW,283,4.0,9.0,60,0.00,,,0.01,Wunderground v.1.15,2013-03-24 16:51:00,
2013-03-24 12:56:00,33.7,20.9,29.90,NW,318,4.0,9.0,59,0.00,,,0.02,Wunderground v.1.15,2013-03-24 16:56:00,
2013-03-24 13:01:00,33.4,21.0,29.89,West,276,4.0,9.0,60,0.00,,,0.02,Wunderground v.1.15,2013-03-24 17:01:00,
2013-03-24 13:06:00,33.7,21.3,29.89,NNW,342,4.0,9.0,60,0.00,,,0.02,Wunderground v.1.15,2013-03-24 17:06:00,
2013-03-24 13:12:00,33.5,20.7,29.89,West,277,4.0,9.0,59,0.00,,,0.02,Wunderground v.1.15,2013-03-24 17:12:00,
2013-03-24 13:17:00,34.1,21.3,29.89,WSW,250,4.0,9.0,59,0.00,,,0.02,Wunderground v.1.15,2013-03-24 17:17:00,
2013-03-24 13:23:00,35.6,22.7,29.89,NW,318,3.0,9.0,59,0.00,,,0.03,Wunderground v.1.15,2013-03-24 17:23:00,
2013-03-24 13:28:00,36.3,22.1,29.89,North,351,2.0,9.0,56,0.00,,,0.03,Wunderground v.1.15,2013-03-24 17:28:00,
2013-03-24 13:33:00,35.6,21.0,29.89,North,358,3.0,9.0,55,0.00,,,0.03,Wunderground v.1.15,2013-03-24 17:33:00,
2013-03-24 13:39:00,35.0,21.3,29.89,NNW,338,3.0,9.0,57,0.00,,,0.03,Wunderground v.1.15,2013-03-24 17:39:00,
2013-03-24 13:44:00,36.4,22.6,29.89,ENE,66,3.0,9.0,57,0.00,,,0.04,Wunderground v.1.15,2013-03-24 17:44:00,
2013-03-24 13:49:00,36.9,22.2,29.89,North,349,2.0,9.0,55,0.00,,,0.04,Wunderground v.1.15,2013-03-24 17:49:00,
2013-03-24 13:55:00,37.1,21.5,29.89,NW,305,1.0,9.0,53,0.00,,,0.04,Wunderground v.1.15,2013-03-24 17:55:00,
2013-03-24 14:00:00,37.5,22.3,29.88,East,79,2.0,9.0,54,0.00,,,0.04,Wunderground v.1.15,2013-03-24 18:00:00,
2013-03-24 14:05:00,36.7,21.2,29.88,NW,316,2.0,9.0,53,0.00,,,0.05,Wunderground v.1.15,2013-03-24 18:05:00,
2013-03-24 14:10:00,36.0,21.4,29.87,West,276,3.0,9.0,55,0.00,,,0.05,Wunderground v.1.15,2013-03-24 18:10:00,
2013-03-24 14:16:00,36.7,22.5,29.87,NW,305,3.0,9.0,56,0.00,,,0.05,Wunderground v.1.15,2013-03-24 18:16:00,
2013-03-24 14:22:00,37.3,22.6,29.87,North,358,2.0,9.0,55,0.00,,,0.06,Wunderground v.1.15,2013-03-24 18:22:00,
2013-03-24 14:27:00,37.1,21.5,29.87,WNW,297,3.0,9.0,53,0.00,,,0.06,Wunderground v.1.15,2013-03-24 18:27:00,
2013-03-24 14:33:00,37.1,22.0,29.86,WNW,288,3.0,9.0,54,0.00,,,0.06,Wunderground v.1.15,2013-03-24 18:33:00,
2013-03-24 14:38:00,36.6,21.5,29.85,NW,307,3.0,9.0,54,0.00,,,0.07,Wunderground v.1.15,2013-03-24 18:38:00,
2013-03-24 14:43:00,37.1,23.3,29.85,NE,41,3.0,9.0,57,0.00,,,0.07,Wunderground v.1.15,2013-03-24 18:43:00,
2013-03-24 14:49:00,36.2,22.4,29.85,NNE,16,2.0,9.0,57,0.00,,,0.07,Wunderground v.1.15,2013-03-24 18:49:00,
2013-03-24 14:54:00,36.7,22.9,29.85,North,349,2.0,9.0,57,0.00,,,0.07,Wunderground v.1.15,2013-03-24 18:54:00,
2013-03-24 14:59:00,37.2,22.9,29.85,NNW,342,2.0,9.0,56,0.00,,,0.07,Wunderground v.1.15,2013-03-24 18:59:00,
2013-03-24 15:04:00,38.0,22.8,29.84,NNE,25,2.0,9.0,54,0.00,,,0.08,Wunderground v.1.15,2013-03-24 19:04:00,
2013-03-24 15:09:00,37.9,23.2,29.85,North,352,1.0,9.0,55,0.00,,,0.08,Wunderground v.1.15,2013-03-24 19:09:00,
2013-03-24 15:14:00,37.7,22.1,29.84,NNW,329,1.0,9.0,53,0.00,,,0.08,Wunderground v.1.15,2013-03-24 19:14:00,
2013-03-24 15:20:00,37.7,22.1,29.84,NW,320,2.0,9.0,53,0.00,,,0.08,Wunderground v.1.15,2013-03-24 19:20:00,
2013-03-24 15:25:00,37.3,21.7,29.84,WNW,294,3.0,9.0,53,0.00,,,0.09,Wunderground v.1.15,2013-03-24 19:25:00,
2013-03-24 15:30:00,38.2,22.6,29.83,North,352,2.0,9.0,53,0.00,,,0.09,Wunderground v.1.15,2013-03-24 19:30:00,
2013-03-24 15:35:00,38.5,22.8,29.83,ENE,61,1.0,9.0,53,0.00,,,0.09,Wunderground v.1.15,2013-03-24 19:35:00,
2013-03-24 15:41:00,38.2,23.4,29.83,ENE,58,2.0,9.0,55,0.00,,,0.09,Wunderground v.1.15,2013-03-24 19:41:00,
2013-03-24 15:46:00,38.1,22.9,29.83,NNW,335,2.0,9.0,54,0.00,,,0.09,Wunderground v.1.15,2013-03-24 19:46:00,
2013-03-24 15:52:00,38.2,23.0,29.82,NNW,342,2.0,9.0,54,0.00,,,0.09,Wunderground v.1.15,2013-03-24 19:52:00,
2013-03-24 15:57:00,38.1,23.3,29.82,NNW,344,2.0,9.0,55,0.00,,,0.09,Wunderground v.1.15,2013-03-24 19:57:00,
2013-03-24 16:02:00,38.2,23.0,29.82,North,6,2.0,9.0,54,0.00,,,0.09,Wunderground v.1.15,2013-03-24 20:02:00,
2013-03-24 16:08:00,37.9,23.2,29.82,NW,316,1.0,9.0,55,0.00,,,0.10,Wunderground v.1.15,2013-03-24 20:08:00,
2013-03-24 16:14:00,37.8,23.1,29.81,North,349,2.0,9.0,55,0.00,,,0.10,Wunderground v.1.15,2013-03-24 20:14:00,
2013-03-24 16:19:00,37.3,22.2,29.81,NW,309,2.0,9.0,54,0.00,,,0.10,Wunderground v.1.15,2013-03-24 20:19:00,
2013-03-24 16:24:00,36.7,22.0,29.81,NNW,330,3.0,9.0,55,0.00,,,0.10,Wunderground v.1.15,2013-03-24 20:24:00,
2013-03-24 16:29:00,36.5,23.1,29.80,North,356,3.0,9.0,58,0.00,,,0.10,Wunderground v.1.15,2013-03-24 20:29:00,
2013-03-24 16:34:00,36.7,23.3,29.80,NW,324,3.0,9.0,58,0.00,,,0.10,Wunderground v.1.15,2013-03-24 20:34:00,
2013-03-24 16:39:00,36.9,23.1,29.80,NNE,21,2.0,9.0,57,0.00,,,0.10,Wunderground v.1.15,2013-03-24 20:39:00,
2013-03-24 16:44:00,36.9,22.7,29.80,ENE,71,2.0,9.0,56,0.00,,,0.10,Wunderground v.1.15,2013-03-24 20:44:00,
2013-03-24 16:50:00,36.9,23.1,29.80,NE,50,2.0,9.0,57,0.00,,,0.10,Wunderground v.1.15,2013-03-24 20:50:00,
2013-03-24 16:56:00,36.6,22.8,29.80,NNW,347,1.0,9.0,57,0.00,,,0.10,Wunderground v.1.15,2013-03-24 20:56:00,
2013-03-24 17:02:00,35.9,22.1,29.80,North,356,2.0,9.0,57,0.00,,,0.10,Wunderground v.1.15,2013-03-24 21:02:00,
2013-03-24 17:07:00,35.7,22.8,29.80,NE,43,2.0,9.0,59,0.00,,,0.10,Wunderground v.1.15,2013-03-24 21:07:00,
2013-03-24 17:13:00,35.8,22.5,29.80,North,353,1.0,9.0,58,0.00,,,0.10,Wunderground v.1.15,2013-03-24 21:13:00,
2013-03-24 17:19:00,35.9,22.5,29.80,SE,131,2.0,9.0,58,0.00,,,0.10,Wunderground v.1.15,2013-03-24 21:19:00,
2013-03-24 17:24:00,35.6,22.3,29.81,NNE,19,2.0,9.0,58,0.00,,,0.10,Wunderground v.1.15,2013-03-24 21:24:00,
2013-03-24 17:29:00,35.4,21.7,29.80,WNW,300,1.0,9.0,57,0.00,,,0.10,Wunderground v.1.15,2013-03-24 21:29:00,
2013-03-24 17:35:00,35.5,23.0,29.81,NNE,12,1.0,9.0,60,0.00,,,0.10,Wunderground v.1.15,2013-03-24 21:35:00,
2013-03-24 17:40:00,35.5,22.6,29.81,North,351,1.0,1.0,59,0.00,,,0.10,Wunderground v.1.15,2013-03-24 21:40:00,
2013-03-24 17:45:00,35.3,22.8,29.81,NNW,346,1.0,9.0,60,0.00,,,0.10,Wunderground v.1.15,2013-03-24 21:45:00,
2013-03-24 17:51:00,35.0,22.5,29.81,NE,43,1.0,9.0,60,0.00,,,0.10,Wunderground v.1.15,2013-03-24 21:51:00,
2013-03-24 17:56:00,34.8,22.7,29.80,NNW,347,1.0,9.0,61,0.00,,,0.10,Wunderground v.1.15,2013-03-24 21:56:00,
2013-03-24 18:01:00,34.5,22.4,29.80,NE,49,1.0,9.0,61,0.00,,,0.10,Wunderground v.1.15,2013-03-24 22:01:00,
2013-03-24 18:07:00,34.4,22.3,29.80,ENE,70,0.0,9.0,61,0.00,,,0.10,Wunderground v.1.15,2013-03-24 22:07:00,
2013-03-24 18:12:00,34.3,23.0,29.80,NE,36,0.0,9.0,63,0.00,,,0.10,Wunderground v.1.15,2013-03-24 22:12:00,
2013-03-24 18:17:00,33.8,22.5,29.80,North,355,1.0,9.0,63,0.00,,,0.10,Wunderground v.1.15,2013-03-24 22:17:00,
2013-03-24 18:22:00,33.5,22.6,29.80,ENE,69,1.0,9.0,64,0.00,,,0.10,Wunderground v.1.15,2013-03-24 22:22:00,
2013-03-24 18:27:00,33.3,22.4,29.80,North,355,1.0,9.0,64,0.00,,,0.10,Wunderground v.1.15,2013-03-24 22:27:00,
2013-03-24 18:32:00,33.1,22.2,29.80,ENE,58,1.0,9.0,64,0.00,,,0.10,Wunderground v.1.15,2013-03-24 22:32:00,
2013-03-24 18:37:00,32.9,22.0,29.80,ENE,71,1.0,9.0,64,0.00,,,0.10,Wunderground v.1.15,2013-03-24 22:37:00,
2013-03-24 18:42:00,32.7,21.9,29.80,West,268,2.0,9.0,64,0.00,,,0.10,Wunderground v.1.15,2013-03-24 22:42:00,
2013-03-24 18:47:00,32.5,22.0,29.79,NNE,32,2.0,9.0,65,0.00,,,0.10,Wunderground v.1.15,2013-03-24 22:47:00,
2013-03-24 18:52:00,32.3,22.2,29.79,ENE,60,1.0,9.0,66,0.00,,,0.10,Wunderground v.1.15,2013-03-24 22:52:00,
2013-03-24 18:57:00,32.2,22.1,29.80,NE,55,1.0,9.0,66,0.00,,,0.10,Wunderground v.1.15,2013-03-24 22:57:00,
2013-03-24 19:02:00,31.9,21.8,29.80,East,84,1.0,9.0,66,0.00,,,0.10,Wunderground v.1.15,2013-03-24 23:02:00,
2013-03-24 19:07:00,31.7,21.6,29.80,East,83,1.0,9.0,66,0.00,,,0.10,Wunderground v.1.15,2013-03-24 23:07:00,
2013-03-24 19:13:00,31.4,22.1,29.80,East,84,0.0,9.0,68,0.00,,,0.10,Wunderground v.1.15,2013-03-24 23:13:00,
2013-03-24 19:19:00,31.2,21.9,29.81,East,84,0.0,9.0,68,0.00,,,0.10,Wunderground v.1.15,2013-03-24 23:19:00,
2013-03-24 19:24:00,30.9,21.2,29.81,East,83,0.0,9.0,67,0.00,,,0.10,Wunderground v.1.15,2013-03-24 23:24:00,
2013-03-24 19:29:00,30.5,21.2,29.81,East,83,0.0,9.0,68,0.00,,,0.10,Wunderground v.1.15,2013-03-24 23:29:00,
2013-03-24 19:34:00,30.3,21.3,29.80,East,84,0.0,9.0,69,0.00,,,0.10,Wunderground v.1.15,2013-03-24 23:34:00,
2013-03-24 19:39:00,30.3,21.7,29.80,East,84,0.0,9.0,70,0.00,,,0.10,Wunderground v.1.15,2013-03-24 23:39:00,
2013-03-24 19:45:00,30.2,21.9,29.80,East,83,0.0,9.0,71,0.00,,,0.10,Wunderground v.1.15,2013-03-24 23:45:00,
2013-03-24 19:50:00,30.2,21.9,29.79,East,83,0.0,9.0,71,0.00,,,0.10,Wunderground v.1.15,2013-03-24 23:50:00,
2013-03-24 19:55:00,30.1,21.5,29.80,East,83,0.0,9.0,70,0.00,,,0.10,Wunderground v.1.15,2013-03-24 23:55:00,
2013-03-24 20:00:00,29.9,21.6,29.80,East,83,0.0,9.0,71,0.00,,,0.10,Wunderground v.1.15,2013-03-25 00:00:00,
2013-03-24 20:06:00,29.7,21.8,29.80,East,83,0.0,9.0,72,0.00,,,0.10,Wunderground v.1.15,2013-03-25 00:06:00,
2013-03-24 20:11:00,29.6,21.7,29.80,East,85,0.0,9.0,72,0.00,,,0.10,Wunderground v.1.15,2013-03-25 00:11:00,
2013-03-24 20:16:00,29.5,21.6,29.80,East,84,0.0,9.0,72,0.00,,,0.10,Wunderground v.1.15,2013-03-25 00:16:00,
2013-03-24 20:21:00,29.6,21.7,29.80,East,84,0.0,9.0,72,0.00,,,0.10,Wunderground v.1.15,2013-03-25 00:21:00,
2013-03-24 20:26:00,29.8,21.9,29.80,East,83,0.0,9.0,72,0.00,,,0.10,Wunderground v.1.15,2013-03-25 00:26:00,
2013-03-24 20:32:00,30.0,22.1,29.80,ENE,77,1.0,9.0,72,0.00,,,0.10,Wunderground v.1.15,2013-03-25 00:32:00,
2013-03-24 20:37:00,30.0,21.7,29.80,NE,47,1.0,9.0,71,0.00,,,0.10,Wunderground v.1.15,2013-03-25 00:37:00,
2013-03-24 20:42:00,30.0,22.1,29.80,NNE,25,1.0,9.0,72,0.00,,,0.10,Wunderground v.1.15,2013-03-25 00:42:00,
2013-03-24 20:48:00,29.9,22.0,29.80,NNE,26,0.0,9.0,72,0.00,,,0.10,Wunderground v.1.15,2013-03-25 00:48:00,
2013-03-24 20:53:00,29.7,21.8,29.80,NNE,26,0.0,9.0,72,0.00,,,0.10,Wunderground v.1.15,2013-03-25 00:53:00,
2013-03-24 20:58:00,29.6,21.7,29.81,ENE,74,0.0,9.0,72,0.00,,,0.10,Wunderground v.1.15,2013-03-25 00:58:00,
2013-03-24 21:03:00,29.5,21.6,29.81,ENE,62,0.0,9.0,72,0.00,,,0.10,Wunderground v.1.15,2013-03-25 01:03:00,
2013-03-24 21:08:00,29.9,22.0,29.81,NNE,33,1.0,9.0,72,0.00,,,0.10,Wunderground v.1.15,2013-03-25 01:08:00,
2013-03-24 21:13:00,30.2,21.9,29.82,NE,39,2.0,9.0,71,0.00,,,0.10,Wunderground v.1.15,2013-03-25 01:13:00,
2013-03-24 21:18:00,30.3,22.0,29.82,East,84,1.0,9.0,71,0.00,,,0.10,Wunderground v.1.15,2013-03-25 01:18:00,
2013-03-24 21:23:00,30.2,21.9,29.83,South,191,1.0,9.0,71,0.00,,,0.10,Wunderground v.1.15,2013-03-25 01:23:00,
2013-03-24 21:28:00,30.0,22.4,29.83,SSE,156,1.0,9.0,73,0.00,,,0.10,Wunderground v.1.15,2013-03-25 01:28:00,
2013-03-24 21:33:00,29.8,22.2,29.83,South,170,0.0,9.0,73,0.00,,,0.10,Wunderground v.1.15,2013-03-25 01:33:00,
2013-03-24 21:39:00,29.6,22.0,29.83,East,87,0.0,9.0,73,0.00,,,0.10,Wunderground v.1.15,2013-03-25 01:39:00,
2013-03-24 21:44:00,29.7,22.1,29.83,ENE,72,1.0,9.0,73,0.00,,,0.10,Wunderground v.1.15,2013-03-25 01:44:00,
2013-03-24 21:49:00,29.7,22.1,29.83,East,96,1.0,9.0,73,0.00,,,0.10,Wunderground v.1.15,2013-03-25 01:49:00,
2013-03-24 21:54:00,29.7,22.1,29.82,ENE,75,1.0,9.0,73,0.00,,,0.10,Wunderground v.1.15,2013-03-25 01:54:00,
2013-03-24 21:59:00,29.6,22.0,29.82,ENE,68,1.0,9.0,73,0.00,,,0.10,Wunderground v.1.15,2013-03-25 01:59:00,
2013-03-24 22:04:00,29.7,22.1,29.82,ENE,59,1.0,9.0,73,0.00,,,0.10,Wunderground v.1.15,2013-03-25 02:04:00,
2013-03-24 22:10:00,29.7,22.1,29.82,ENE,63,2.0,2.0,73,0.00,,,0.10,Wunderground v.1.15,2013-03-25 02:10:00,
2013-03-24 22:15:00,29.6,22.0,29.82,SE,131,1.0,9.0,73,0.00,,,0.10,Wunderground v.1.15,2013-03-25 02:15:00,
2013-03-24 22:20:00,29.6,22.0,29.82,NNW,347,2.0,2.0,73,0.00,,,0.10,Wunderground v.1.15,2013-03-25 02:20:00,
2013-03-24 22:25:00,29.5,21.9,29.81,ENE,66,2.0,9.0,73,0.00,,,0.10,Wunderground v.1.15,2013-03-25 02:25:00,
2013-03-24 22:30:00,29.5,21.9,29.81,SW,215,1.0,1.0,73,0.00,,,0.10,Wunderground v.1.15,2013-03-25 02:30:00,
2013-03-24 22:36:00,29.4,22.1,29.82,SSE,168,1.0,9.0,74,0.00,,,0.10,Wunderground v.1.15,2013-03-25 02:36:00,
2013-03-24 22:41:00,29.3,22.0,29.82,SE,139,1.0,9.0,74,0.00,,,0.10,Wunderground v.1.15,2013-03-25 02:41:00,
2013-03-24 22:46:00,29.0,21.7,29.81,WSW,238,1.0,9.0,74,0.00,,,0.10,Wunderground v.1.15,2013-03-25 02:46:00,
2013-03-24 22:51:00,28.9,22.0,29.81,SW,235,0.0,9.0,75,0.00,,,0.10,Wunderground v.1.15,2013-03-25 02:51:00,
2013-03-24 22:57:00,28.8,22.2,29.81,ESE,108,1.0,9.0,76,0.00,,,0.10,Wunderground v.1.15,2013-03-25 02:57:00,
2013-03-24 23:02:00,28.8,22.2,29.81,SSW,198,1.0,9.0,76,0.00,,,0.10,Wunderground v.1.15,2013-03-25 03:02:00,
2013-03-24 23:08:00,28.6,22.0,29.81,West,273,1.0,9.0,76,0.00,,,0.10,Wunderground v.1.15,2013-03-25 03:08:00,
2013-03-24 23:13:00,28.5,21.9,29.81,WSW,245,1.0,9.0,76,0.00,,,0.10,Wunderground v.1.15,2013-03-25 03:13:00,
2013-03-24 23:18:00,28.5,22.2,29.81,ENE,58,1.0,9.0,77,0.00,,,0.10,Wunderground v.1.15,2013-03-25 03:18:00,
2013-03-24 23:23:00,28.6,22.3,29.81,NW,304,1.0,9.0,77,0.00,,,0.10,Wunderground v.1.15,2013-03-25 03:23:00,
2013-03-24 23:28:00,28.8,22.5,29.81,ENE,77,1.0,9.0,77,0.00,,,0.10,Wunderground v.1.15,2013-03-25 03:28:00,
2013-03-24 23:33:00,28.6,22.3,29.80,WSW,251,2.0,9.0,77,0.00,,,0.10,Wunderground v.1.15,2013-03-25 03:33:00,
2013-03-24 23:38:00,28.6,22.3,29.80,NE,42,1.0,9.0,77,0.00,,,0.10,Wunderground v.1.15,2013-03-25 03:38:00,
2013-03-24 23:44:00,28.6,22.3,29.80,ENE,73,1.0,9.0,77,0.00,,,0.10,Wunderground v.1.15,2013-03-25 03:44:00,
2013-03-24 23:49:00,28.6,22.3,29.79,ENE,70,1.0,9.0,77,0.00,,,0.10,Wunderground v.1.15,2013-03-25 03:49:00,
2013-03-24 23:54:00,28.6,22.3,29.79,East,82,1.0,9.0,77,0.00,,,0.10,Wunderground v.1.15,2013-03-25 03:54:00,
2013-03-24 23:59:00,28.5,22.2,29.79,NW,322,1.0,9.0,77,0.00,,,0.10,Wunderground v.1.15,2013-03-25 03:59:00,